Time;durP1;ratioP1;P1;durP2;ratioP2;P2;SDS_P1;SDS_P2;PMS_P1;PMS_P2;Temp;Humidity;BMP_temperature;BMP_pressure;BME280_temperature;BME280_humidity;BME280_pressure;Samples;Min_cycle;Max_cycle;Signal;HPM_P1;HPM_P2
2022/10/11 00:01:01;;;;;;;14.02;1.83;;;8.20;99.90;;;;;;5111059;28;20402;-75
2022/10/11 00:03:26;;;;;;;10.17;1.90;;;8.20;99.90;;;;;;5111453;27;20451;-75
2022/10/11 00:05:53;;;;;;;9.00;2.00;;;8.20;99.90;;;;;;5109615;27;20919;-75
2022/10/11 00:08:19;;;;;;;13.25;2.10;;;8.10;99.90;;;;;;5110793;28;20770;-75
2022/10/11 00:10:44;;;;;;;9.23;1.75;;;8.20;99.90;;;;;;5098350;27;20396;-75
2022/10/11 00:13:10;;;;;;;11.10;1.70;;;8.20;99.90;;;;;;5110994;27;20762;-75
2022/10/11 00:15:39;;;;;;;11.70;2.20;;;8.10;99.90;;;;;;5110482;27;20428;-75
2022/10/11 00:18:04;;;;;;;11.93;1.75;;;8.10;99.90;;;;;;5123561;27;20432;-75
2022/10/11 00:20:30;;;;;;;9.27;1.70;;;8.10;99.90;;;;;;5124067;27;20396;-75
2022/10/11 00:22:56;;;;;;;11.88;1.88;;;8.00;99.90;;;;;;5110943;28;20488;-75
2022/10/11 00:25:21;;;;;;;11.10;1.63;;;8.00;99.90;;;;;;5110912;27;20842;-75
2022/10/11 00:27:47;;;;;;;14.47;2.10;;;8.00;99.90;;;;;;5110358;28;20914;-75
2022/10/11 00:30:13;;;;;;;13.77;1.80;;;8.00;99.90;;;;;;5110852;28;20491;-75
2022/10/11 00:32:39;;;;;;;10.15;1.48;;;7.90;99.90;;;;;;5110206;27;20773;-75
2022/10/11 00:35:05;;;;;;;8.37;1.73;;;7.90;99.90;;;;;;5109155;28;20411;-75
2022/10/11 00:37:36;;;;;;;10.00;2.05;;;7.90;99.90;;;;;;5109131;27;20432;-75
2022/10/11 00:40:05;;;;;;;10.70;1.55;;;7.90;99.90;;;;;;5121801;27;20774;-75
2022/10/11 00:42:31;;;;;;;10.88;1.55;;;7.90;99.90;;;;;;5108666;27;20400;-75
2022/10/11 00:45:30;;;;;;;15.18;2.17;;;7.90;99.90;;;;;;5117713;27;20395;-75
2022/10/11 00:48:00;;;;;;;12.25;1.90;;;7.80;99.90;;;;;;5130134;27;20772;-75
2022/10/11 00:50:29;;;;;;;13.27;2.30;;;7.80;99.90;;;;;;5130652;27;20405;-75
2022/10/11 00:52:57;;;;;;;11.20;2.08;;;7.80;99.90;;;;;;5096930;28;20405;-75
2022/10/11 00:55:27;;;;;;;14.48;1.80;;;7.80;99.90;;;;;;5109625;27;20529;-75
2022/10/11 00:57:55;;;;;;;8.93;1.70;;;7.80;99.90;;;;;;5109804;27;20432;-75
2022/10/11 01:00:21;;;;;;;12.07;1.27;;;7.80;99.90;;;;;;5110556;27;20401;-75
2022/10/11 01:02:47;;;;;;;12.50;1.87;;;7.70;99.90;;;;;;5109851;28;20399;-75
2022/10/11 01:05:16;;;;;;;13.18;2.38;;;7.70;99.90;;;;;;5124854;27;20537;-75
2022/10/11 01:07:43;;;;;;;9.57;1.80;;;7.70;99.90;;;;;;5129486;27;20768;-75
2022/10/11 01:10:09;;;;;;;8.93;1.75;;;7.70;99.90;;;;;;5128572;27;20403;-75
2022/10/11 01:12:38;;;;;;;11.45;1.63;;;7.70;99.90;;;;;;5130186;27;20401;-74
2022/10/11 01:15:12;;;;;;;10.98;1.90;;;7.70;99.90;;;;;;5129332;27;20405;-74
2022/10/11 01:18:06;;;;;;;12.90;1.90;;;7.70;99.90;;;;;;5130523;27;20452;-73
2022/10/11 01:20:42;;;;;;;13.25;1.73;;;7.70;99.90;;;;;;5104390;27;20422;-74
2022/10/11 01:23:32;;;;;;;12.23;1.58;;;7.60;99.90;;;;;;5113387;27;20470;-72
2022/10/11 01:26:19;;;;;;;10.48;1.73;;;7.70;99.90;;;;;;5121845;27;20399;-74
2022/10/11 01:28:50;;;;;;;10.37;1.57;;;7.70;99.90;;;;;;5109573;28;20496;-74
2022/10/11 01:31:25;;;;;;;13.50;1.70;;;7.70;99.90;;;;;;5109484;27;20918;-73
2022/10/11 01:34:20;;;;;;;10.70;1.73;;;7.70;99.90;;;;;;5119909;27;20479;-74
2022/10/11 01:37:12;;;;;;;13.83;2.13;;;7.80;99.90;;;;;;5117277;27;20481;-74
2022/10/11 01:39:44;;;;;;;10.57;1.65;;;7.90;99.90;;;;;;5109203;28;20770;-74
2022/10/11 01:42:12;;;;;;;13.02;2.10;;;7.90;99.90;;;;;;5108721;27;20409;-75
2022/10/11 01:44:40;;;;;;;10.18;2.17;;;7.90;99.90;;;;;;5122953;27;20392;-75
2022/10/11 01:47:06;;;;;;;10.95;1.65;;;7.90;99.90;;;;;;5107348;28;20397;-74
2022/10/11 01:49:32;;;;;;;11.43;1.83;;;7.90;99.90;;;;;;5108666;27;20483;-74
2022/10/11 01:52:02;;;;;;;14.35;2.00;;;7.90;99.90;;;;;;5109133;28;20464;-74
2022/10/11 01:54:52;;;;;;;10.60;1.77;;;7.90;99.90;;;;;;5108595;28;20831;-74
2022/10/11 01:57:40;;;;;;;9.82;1.52;;;7.80;99.90;;;;;;5107561;27;20428;-75
2022/10/11 02:00:19;;;;;;;12.20;1.80;;;7.80;99.90;;;;;;5109033;27;20472;-76
2022/10/11 02:03:12;;;;;;;10.35;1.77;;;7.80;99.90;;;;;;5108942;28;20400;-75
2022/10/11 02:05:47;;;;;;;10.38;1.50;;;7.80;99.90;;;;;;5108315;27;20495;-75
2022/10/11 02:08:37;;;;;;;10.50;1.80;;;7.80;99.90;;;;;;5108799;28;20405;-75
2022/10/11 02:11:12;;;;;;;11.80;1.65;;;7.70;99.90;;;;;;5108329;27;20467;-75
2022/10/11 02:13:46;;;;;;;11.47;1.47;;;7.70;99.90;;;;;;5114294;27;20451;-75
2022/10/11 02:16:17;;;;;;;9.70;1.88;;;7.70;99.90;;;;;;5128843;27;20398;-75
2022/10/11 02:18:48;;;;;;;11.43;1.63;;;7.70;99.90;;;;;;5122461;27;20428;-75
2022/10/11 02:21:19;;;;;;;12.43;1.73;;;7.60;99.90;;;;;;5108636;28;20412;-75
2022/10/11 02:24:02;;;;;;;11.00;1.80;;;7.60;99.90;;;;;;5108659;28;20389;-75
2022/10/11 02:26:31;;;;;;;9.27;1.45;;;7.60;99.90;;;;;;5110013;27;20409;-76
2022/10/11 02:29:02;;;;;;;13.25;2.00;;;7.60;99.90;;;;;;5128685;27;20434;-75
2022/10/11 02:31:31;;;;;;;10.07;2.17;;;7.50;99.90;;;;;;5127843;27;20900;-75
2022/10/11 02:34:16;;;;;;;10.50;1.67;;;7.50;99.90;;;;;;5128267;27;20407;-75
2022/10/11 02:36:46;;;;;;;9.32;1.58;;;7.50;99.90;;;;;;5103309;27;20399;-75
2022/10/11 02:39:20;;;;;;;11.23;1.40;;;7.50;99.90;;;;;;5128052;27;20450;-75
2022/10/11 02:41:49;;;;;;;11.02;1.33;;;7.50;99.90;;;;;;5119464;27;20400;-75
2022/10/11 02:44:32;;;;;;;9.55;1.73;;;7.40;99.90;;;;;;5123759;27;20398;-75
2022/10/11 02:46:59;;;;;;;10.07;1.45;;;7.40;99.90;;;;;;5128399;27;20477;-75
2022/10/11 02:49:27;;;;;;;10.30;1.60;;;7.40;99.90;;;;;;5113654;27;20449;-76
2022/10/11 02:51:57;;;;;;;14.43;2.00;;;7.40;99.90;;;;;;5107078;28;20415;-74
2022/10/11 02:54:26;;;;;;;12.52;1.92;;;7.30;99.90;;;;;;5110350;27;20563;-74
2022/10/11 02:56:51;;;;;;;11.25;1.50;;;7.30;99.90;;;;;;5119355;27;20393;-74
2022/10/11 02:59:17;;;;;;;13.13;1.40;;;7.30;99.90;;;;;;5115856;27;20402;-74
2022/10/11 03:01:43;;;;;;;9.03;1.20;;;7.30;99.90;;;;;;5127429;27;20464;-74
2022/10/11 03:04:09;;;;;;;11.47;1.53;;;7.30;99.90;;;;;;5127900;27;20422;-74
2022/10/11 03:06:34;;;;;;;11.83;1.90;;;7.30;99.90;;;;;;5106765;28;20404;-74
2022/10/11 03:09:00;;;;;;;8.43;1.37;;;7.30;99.90;;;;;;5108838;28;20910;-74
2022/10/11 03:11:26;;;;;;;11.40;2.17;;;7.20;99.90;;;;;;5110856;28;20400;-74
2022/10/11 03:13:51;;;;;;;7.50;1.67;;;7.20;99.90;;;;;;5112619;27;20396;-75
2022/10/11 03:16:17;;;;;;;11.13;1.67;;;7.20;99.90;;;;;;5111856;28;20402;-75
2022/10/11 03:18:43;;;;;;;12.53;2.10;;;7.30;99.90;;;;;;5111718;27;20792;-75
2022/10/11 03:21:08;;;;;;;11.48;1.65;;;7.20;99.90;;;;;;5128542;27;20907;-74
2022/10/11 03:23:34;;;;;;;11.57;1.55;;;7.20;99.90;;;;;;5112388;27;20401;-74
2022/10/11 03:26:00;;;;;;;9.57;1.30;;;7.20;99.90;;;;;;5123847;27;20407;-74
2022/10/11 03:28:25;;;;;;;11.00;1.42;;;7.20;99.90;;;;;;5131751;27;20394;-74
2022/10/11 03:30:51;;;;;;;11.43;1.40;;;7.20;99.90;;;;;;5132093;27;20398;-75
2022/10/11 03:33:17;;;;;;;13.33;1.90;;;7.20;99.90;;;;;;5129287;27;20398;-74
2022/10/11 03:35:47;;;;;;;8.38;1.30;;;7.20;99.90;;;;;;5130915;27;20391;-74
2022/10/11 03:38:16;;;;;;;9.60;1.97;;;7.20;99.90;;;;;;5130346;27;20429;-74
2022/10/11 03:40:42;;;;;;;11.77;1.98;;;7.20;99.90;;;;;;5098594;27;20920;-74
2022/10/11 03:43:08;;;;;;;11.20;1.20;;;7.20;99.90;;;;;;5111360;28;20916;-74
2022/10/11 03:45:34;;;;;;;11.23;1.43;;;7.20;99.90;;;;;;5105103;27;20391;-74
2022/10/11 03:48:00;;;;;;;14.20;1.70;;;7.20;99.90;;;;;;5131223;27;20405;-74
2022/10/11 03:50:25;;;;;;;15.23;2.42;;;7.20;99.90;;;;;;5131549;27;20403;-74
2022/10/11 03:52:51;;;;;;;11.20;1.65;;;7.10;99.90;;;;;;5131520;27;20401;-74
2022/10/11 03:55:17;;;;;;;12.57;1.70;;;7.10;99.90;;;;;;5130111;27;20402;-75
2022/10/11 03:57:42;;;;;;;12.70;1.58;;;7.10;99.90;;;;;;5131485;27;20436;-75
2022/10/11 04:00:08;;;;;;;9.30;1.60;;;7.10;99.90;;;;;;5131240;27;20399;-74
2022/10/11 04:02:34;;;;;;;10.95;1.67;;;7.10;99.90;;;;;;5130390;27;20398;-73
2022/10/11 04:05:00;;;;;;;10.85;1.88;;;7.10;99.90;;;;;;5130735;27;20411;-74
2022/10/11 04:07:26;;;;;;;16.05;1.90;;;7.10;99.90;;;;;;5141155;27;20406;-74
2022/10/11 04:09:52;;;;;;;10.48;1.60;;;7.10;99.90;;;;;;5141618;27;20433;-75
2022/10/11 04:12:17;;;;;;;10.50;1.53;;;7.10;99.90;;;;;;5141473;27;20402;-75
2022/10/11 04:14:43;;;;;;;11.88;1.58;;;7.00;99.90;;;;;;5113303;27;20396;-75
2022/10/11 04:17:09;;;;;;;12.60;2.00;;;7.00;99.90;;;;;;5111565;27;20427;-75
2022/10/11 04:19:36;;;;;;;12.40;1.83;;;7.00;99.90;;;;;;5111108;28;21190;-74
2022/10/11 04:22:03;;;;;;;12.57;1.95;;;7.00;99.90;;;;;;5111469;27;20404;-75
2022/10/11 04:24:29;;;;;;;12.10;1.88;;;7.00;99.90;;;;;;5111502;27;20400;-74
2022/10/11 04:26:54;;;;;;;8.70;1.47;;;7.00;99.90;;;;;;5111327;28;20453;-74
2022/10/11 04:29:20;;;;;;;10.48;1.40;;;7.00;99.90;;;;;;5111223;27;20803;-74
2022/10/11 04:31:48;;;;;;;12.60;2.13;;;7.00;99.90;;;;;;5110170;27;20431;-74
2022/10/11 04:34:13;;;;;;;9.10;1.50;;;7.00;99.90;;;;;;5124334;27;20998;-75
2022/10/11 04:36:39;;;;;;;10.15;2.08;;;6.90;99.90;;;;;;5113357;28;20523;-74
2022/10/11 04:39:06;;;;;;;10.63;1.63;;;6.90;99.90;;;;;;5121396;27;21239;-74
2022/10/11 04:41:32;;;;;;;9.50;1.70;;;6.90;99.90;;;;;;5120902;28;20511;-74
2022/10/11 04:43:58;;;;;;;7.80;1.55;;;6.90;99.90;;;;;;5120134;27;20463;-74
2022/10/11 04:46:24;;;;;;;14.20;2.33;;;6.90;99.90;;;;;;5120356;28;20429;-74
2022/10/11 04:48:50;;;;;;;12.48;1.77;;;6.90;99.90;;;;;;5121895;27;21005;-74
2022/10/11 04:51:16;;;;;;;13.00;2.13;;;6.90;99.90;;;;;;5134458;27;20423;-74
2022/10/11 04:53:42;;;;;;;13.10;1.85;;;6.90;99.90;;;;;;5126380;27;20516;-74
2022/10/11 04:56:10;;;;;;;10.30;2.07;;;6.80;99.90;;;;;;5115918;27;20910;-73
2022/10/11 04:58:37;;;;;;;11.48;1.88;;;6.90;99.90;;;;;;5130706;27;20427;-72
2022/10/11 05:01:03;;;;;;;11.70;1.92;;;6.90;99.90;;;;;;5130754;27;20695;-74
2022/10/11 05:03:28;;;;;;;8.38;1.80;;;6.90;99.90;;;;;;5129781;27;20434;-75
2022/10/11 05:05:54;;;;;;;11.35;2.08;;;6.90;99.90;;;;;;5130464;27;20433;-75
2022/10/11 05:08:22;;;;;;;11.73;2.27;;;6.80;99.90;;;;;;5119702;27;20432;-74
2022/10/11 05:10:58;;;;;;;11.18;2.00;;;6.80;99.90;;;;;;5108779;27;20914;-75
2022/10/11 05:13:25;;;;;;;11.40;1.92;;;6.80;99.90;;;;;;5106519;27;21076;-76
2022/10/11 05:15:51;;;;;;;12.13;2.33;;;6.80;99.90;;;;;;5106892;28;20513;-75
2022/10/11 05:18:17;;;;;;;14.38;2.67;;;6.80;99.90;;;;;;5109966;28;21002;-75
2022/10/11 05:20:43;;;;;;;12.68;2.15;;;6.80;99.90;;;;;;5110132;28;20404;-75
2022/10/11 05:23:09;;;;;;;10.63;1.83;;;6.80;99.90;;;;;;5109838;28;20400;-75
2022/10/11 05:25:34;;;;;;;12.27;2.27;;;6.80;99.90;;;;;;5113240;27;20408;-75
2022/10/11 05:28:00;;;;;;;17.17;2.35;;;6.80;99.90;;;;;;5116095;27;20400;-76
2022/10/11 05:30:26;;;;;;;12.10;2.50;;;6.80;99.90;;;;;;5116336;27;20810;-75
2022/10/11 05:32:51;;;;;;;12.43;2.20;;;6.80;99.90;;;;;;5110000;27;20457;-75
2022/10/11 05:35:17;;;;;;;12.63;2.00;;;6.80;99.90;;;;;;5108247;28;20456;-76
2022/10/11 05:37:43;;;;;;;14.17;1.80;;;6.80;99.90;;;;;;5106520;28;20475;-76
2022/10/11 05:40:09;;;;;;;14.98;2.13;;;6.80;99.90;;;;;;5115632;27;20409;-75
2022/10/11 05:42:35;;;;;;;9.77;1.85;;;6.80;99.90;;;;;;5108630;27;20408;-76
2022/10/11 05:45:02;;;;;;;10.03;1.87;;;6.80;99.90;;;;;;5109024;28;20423;-75
2022/10/11 05:47:27;;;;;;;11.70;2.05;;;6.80;99.90;;;;;;5108872;28;20925;-76
2022/10/11 05:49:53;;;;;;;13.43;2.03;;;6.80;99.90;;;;;;5109164;28;20404;-75
2022/10/11 05:52:20;;;;;;;10.57;1.85;;;6.70;99.90;;;;;;5108710;28;20407;-75
2022/10/11 05:54:47;;;;;;;9.52;1.50;;;6.80;99.90;;;;;;5115379;27;20432;-75
2022/10/11 05:57:13;;;;;;;14.37;2.37;;;6.80;99.90;;;;;;5108325;27;20868;-76
2022/10/11 05:59:39;;;;;;;15.47;2.00;;;6.80;99.90;;;;;;5109227;27;20396;-76
2022/10/11 06:02:05;;;;;;;10.30;1.90;;;6.80;99.90;;;;;;5092104;28;20815;-75
2022/10/11 06:04:30;;;;;;;8.50;1.77;;;6.70;99.90;;;;;;5114691;27;20561;-76
2022/10/11 06:06:56;;;;;;;9.25;1.63;;;6.70;99.90;;;;;;5120804;27;20396;-75
2022/10/11 06:09:22;;;;;;;12.77;2.13;;;6.80;99.90;;;;;;5114932;27;20417;-74
2022/10/11 06:11:47;;;;;;;11.45;1.70;;;6.80;99.90;;;;;;5109616;27;20820;-75
2022/10/11 06:14:13;;;;;;;11.63;2.07;;;6.80;99.90;;;;;;5108054;28;20443;-71
2022/10/11 06:16:39;;;;;;;10.37;2.00;;;6.80;99.90;;;;;;5107041;28;20416;-75
2022/10/11 06:19:04;;;;;;;15.15;2.80;;;6.80;99.90;;;;;;5108416;28;20564;-71
2022/10/11 06:21:30;;;;;;;17.27;3.37;;;6.80;99.90;;;;;;5108450;28;20435;-71
2022/10/11 06:23:56;;;;;;;11.57;2.10;;;6.80;99.90;;;;;;5107301;28;20974;-72
2022/10/11 06:26:21;;;;;;;15.13;2.20;;;6.80;99.90;;;;;;5108950;28;20404;-72
2022/10/11 06:28:47;;;;;;;13.45;2.08;;;6.80;99.90;;;;;;5108829;28;20404;-72
2022/10/11 06:31:13;;;;;;;10.47;1.40;;;6.90;99.90;;;;;;5106322;28;20423;-75
2022/10/11 06:33:38;;;;;;;11.90;1.80;;;6.90;99.90;;;;;;5108433;28;20451;-75
2022/10/11 06:36:08;;;;;;;12.60;2.22;;;6.90;99.90;;;;;;5107903;28;20407;-74
2022/10/11 06:38:34;;;;;;;14.07;2.70;;;7.00;99.90;;;;;;5105432;28;20478;-75
2022/10/11 06:41:17;;;;;;;12.82;2.85;;;7.00;99.90;;;;;;5108007;28;20420;-73
2022/10/11 06:43:43;;;;;;;14.07;3.33;;;7.00;99.90;;;;;;5104598;28;20428;-75
2022/10/11 06:46:09;;;;;;;13.32;2.20;;;7.10;99.90;;;;;;5108812;28;20928;-74
2022/10/11 06:48:39;;;;;;;15.50;2.35;;;7.10;99.90;;;;;;5108290;28;20439;-75
2022/10/11 06:51:05;;;;;;;11.38;1.90;;;7.30;99.90;;;;;;5108588;28;20419;-73
2022/10/11 06:53:30;;;;;;;11.57;2.13;;;7.40;99.90;;;;;;5106834;28;20424;-73
2022/10/11 06:56:08;;;;;;;13.73;1.90;;;7.50;99.90;;;;;;5107855;28;20447;-72
2022/10/11 06:58:33;;;;;;;12.18;1.70;;;7.60;99.90;;;;;;5107815;28;20424;-73
2022/10/11 07:01:00;;;;;;;11.52;1.85;;;7.80;99.90;;;;;;5107149;28;20834;-73
2022/10/11 07:03:27;;;;;;;11.88;2.30;;;7.90;99.90;;;;;;5093461;28;20425;-73
2022/10/11 07:05:53;;;;;;;11.93;1.83;;;8.00;99.90;;;;;;5102925;28;20512;-73
2022/10/11 07:08:18;;;;;;;11.13;1.70;;;8.20;99.90;;;;;;5100603;28;20427;-71
2022/10/11 07:10:44;;;;;;;10.40;1.53;;;8.30;99.90;;;;;;5106575;28;20555;-71
2022/10/11 07:13:09;;;;;;;10.52;1.70;;;8.40;99.90;;;;;;5098919;28;20416;-72
2022/10/11 07:15:37;;;;;;;13.17;1.60;;;8.50;99.90;;;;;;5108154;28;20801;-71
2022/10/11 07:18:03;;;;;;;11.00;1.52;;;8.60;99.90;;;;;;5105221;28;20428;-71
2022/10/11 07:20:28;;;;;;;14.73;1.70;;;8.60;99.90;;;;;;5107784;28;20411;-71
2022/10/11 07:22:54;;;;;;;13.32;1.75;;;8.70;99.90;;;;;;5107836;28;20392;-71
2022/10/11 07:25:20;;;;;;;11.20;2.20;;;8.70;99.90;;;;;;5107912;28;20400;-71
2022/10/11 07:27:45;;;;;;;16.25;2.05;;;8.80;99.90;;;;;;5098016;28;20427;-71
2022/10/11 07:30:11;;;;;;;11.97;2.10;;;8.80;99.90;;;;;;5108222;28;20396;-71
2022/10/11 07:32:37;;;;;;;11.47;1.63;;;8.90;99.90;;;;;;5107355;28;20460;-70
2022/10/11 07:35:03;;;;;;;10.98;1.65;;;8.90;99.90;;;;;;5108045;28;20558;-71
2022/10/11 07:37:28;;;;;;;10.87;1.70;;;9.00;99.90;;;;;;5107452;28;20783;-71
2022/10/11 07:39:54;;;;;;;10.63;2.05;;;9.00;99.90;;;;;;5107676;28;20472;-72
2022/10/11 07:42:21;;;;;;;15.20;2.30;;;9.10;99.90;;;;;;5107919;28;20915;-71
2022/10/11 07:44:47;;;;;;;10.85;1.63;;;9.20;99.90;;;;;;5103909;28;20568;-71
2022/10/11 07:47:12;;;;;;;11.82;1.60;;;9.20;99.90;;;;;;5103046;28;20566;-71
2022/10/11 07:49:38;;;;;;;13.48;2.08;;;9.20;99.90;;;;;;5107947;28;20415;-72
2022/10/11 07:52:04;;;;;;;8.43;1.63;;;9.20;99.90;;;;;;5106907;27;20772;-71
2022/10/11 07:54:29;;;;;;;12.35;1.73;;;9.20;99.90;;;;;;5107859;28;20435;-72
2022/10/11 07:56:55;;;;;;;12.80;2.07;;;9.30;99.90;;;;;;5124190;27;20394;-71
2022/10/11 07:59:21;;;;;;;8.63;1.30;;;9.20;99.90;;;;;;5111400;28;20420;-71
2022/10/11 08:01:46;;;;;;;11.90;1.87;;;9.30;99.90;;;;;;5111470;28;20400;-71
2022/10/11 08:04:12;;;;;;;14.75;2.10;;;9.30;99.90;;;;;;5115781;27;20401;-72
2022/10/11 08:06:37;;;;;;;11.93;2.00;;;9.40;99.90;;;;;;5109258;27;20539;-72
2022/10/11 08:09:04;;;;;;;8.88;1.40;;;9.50;99.90;;;;;;5113400;27;20585;-71
2022/10/11 08:11:36;;;;;;;18.02;2.50;;;9.50;99.90;;;;;;5111146;27;20844;-71
2022/10/11 08:14:07;;;;;;;10.45;1.73;;;9.70;99.90;;;;;;5106137;28;20451;-72
2022/10/11 08:16:33;;;;;;;9.23;1.77;;;9.90;99.90;;;;;;5099152;27;20433;-72
2022/10/11 08:19:00;;;;;;;8.63;1.52;;;10.10;99.90;;;;;;5109412;27;20451;-72
2022/10/11 08:21:25;;;;;;;11.70;1.87;;;10.30;99.90;;;;;;5112062;27;20486;-72
2022/10/11 08:23:51;;;;;;;10.57;2.00;;;10.40;99.90;;;;;;5110423;27;20475;-71
2022/10/11 08:26:17;;;;;;;6.93;1.67;;;10.50;99.90;;;;;;5112061;27;20425;-72
2022/10/11 08:28:43;;;;;;;9.30;1.67;;;10.60;99.90;;;;;;5110469;27;20445;-71
2022/10/11 08:31:12;;;;;;;8.07;1.70;;;10.70;99.90;;;;;;5111529;27;20418;-72
2022/10/11 08:33:37;;;;;;;11.27;1.83;;;10.70;99.90;;;;;;5111068;27;20396;-72
2022/10/11 08:36:04;;;;;;;8.05;1.35;;;10.70;99.90;;;;;;5109763;27;20762;-72
2022/10/11 08:38:30;;;;;;;9.05;1.85;;;10.70;99.90;;;;;;5108361;28;20429;-72
2022/10/11 08:40:58;;;;;;;10.90;1.73;;;10.70;99.90;;;;;;5108677;28;20432;-72
2022/10/11 08:43:48;;;;;;;12.18;1.70;;;10.70;99.90;;;;;;5109111;28;20404;-72
2022/10/11 08:46:14;;;;;;;10.02;1.60;;;10.80;99.90;;;;;;5110845;28;20444;-72
2022/10/11 08:48:43;;;;;;;11.87;1.83;;;10.90;99.90;;;;;;5110662;28;20439;-72
2022/10/11 08:51:34;;;;;;;15.48;2.38;;;11.00;99.90;;;;;;5103343;28;20405;-71
2022/10/11 08:54:16;;;;;;;13.80;2.10;;;11.10;99.90;;;;;;5103492;28;20412;-72
2022/10/11 08:56:43;;;;;;;12.25;1.70;;;11.20;99.90;;;;;;5108252;28;20445;-72
2022/10/11 08:59:12;;;;;;;9.68;1.88;;;11.40;99.90;;;;;;5110398;28;20454;-71
2022/10/11 09:01:51;;;;;;;12.98;2.03;;;12.30;99.90;;;;;;5110644;28;20930;-72
2022/10/11 09:04:17;;;;;;;9.38;1.70;;;13.60;99.90;;;;;;5103008;28;20428;-72
2022/10/11 09:06:51;;;;;;;9.93;1.50;;;14.80;99.90;;;;;;5107978;28;20481;-72
2022/10/11 09:09:42;;;;;;;8.65;1.80;;;16.00;99.90;;;;;;5110635;28;20447;-72
2022/10/11 09:12:29;;;;;;;9.18;1.85;;;16.90;99.90;;;;;;5096060;28;20428;-71
2022/10/11 09:15:19;;;;;;;8.43;1.42;;;17.50;99.90;;;;;;5107727;28;20427;-72
2022/10/11 09:17:47;;;;;;;8.30;1.60;;;18.10;99.90;;;;;;5110175;28;20435;-72
2022/10/11 09:20:34;;;;;;;8.10;1.30;;;18.70;99.90;;;;;;5096950;28;20426;-72
2022/10/11 09:23:41;;;;;;;9.02;1.70;;;19.30;99.90;;;;;;5105665;28;20455;-72
2022/10/11 09:26:30;;;;;;;7.60;1.58;;;19.80;99.90;;;;;;5086466;28;20442;-72
2022/10/11 09:29:00;;;;;;;9.85;1.70;;;20.30;99.90;;;;;;5105447;28;20424;-72
2022/10/11 09:31:27;;;;;;;8.23;1.52;;;20.50;99.90;;;;;;5106125;28;20450;-73
2022/10/11 09:33:54;;;;;;;7.22;1.30;;;20.80;99.90;;;;;;5114966;27;20928;-73
2022/10/11 09:36:43;;;;;;;8.30;1.30;;;20.90;99.90;;;;;;5112806;27;20548;-72
2022/10/11 09:39:34;;;;;;;8.38;1.70;;;21.10;99.90;;;;;;5107265;28;20568;-73
2022/10/11 09:42:01;;;;;;;9.73;1.42;;;21.20;99.90;;;;;;5108512;28;20426;-73
2022/10/11 09:44:34;;;;;;;7.90;1.80;;;21.30;99.60;;;;;;5108001;28;20504;-72
2022/10/11 09:46:59;;;;;;;6.18;1.25;;;21.40;99.80;;;;;;5118332;27;20455;-72
2022/10/11 09:49:45;;;;;;;7.13;1.33;;;21.70;98.50;;;;;;5113595;27;20396;-72
2022/10/11 09:52:16;;;;;;;9.25;1.45;;;22.00;98.40;;;;;;5108021;28;20408;-72
2022/10/11 09:54:48;;;;;;;8.60;1.42;;;22.40;96.70;;;;;;5103467;27;20406;-73
2022/10/11 09:57:38;;;;;;;8.38;1.38;;;22.70;96.70;;;;;;5100641;28;20459;-71
2022/10/11 10:00:20;;;;;;;9.10;1.40;;;22.90;94.50;;;;;;5109156;28;20408;-72
2022/10/11 10:02:50;;;;;;;7.97;1.52;;;23.10;94.90;;;;;;5108471;28;20448;-72
2022/10/11 10:05:25;;;;;;;8.43;1.63;;;23.10;93.80;;;;;;5108140;28;20484;-70
2022/10/11 10:07:57;;;;;;;6.72;1.52;;;23.20;93.40;;;;;;5099966;28;20401;-71
2022/10/11 10:10:39;;;;;;;8.63;1.42;;;23.20;93.50;;;;;;5106909;28;20511;-71
2022/10/11 10:13:21;;;;;;;6.80;1.20;;;23.10;93.30;;;;;;5102185;28;20454;-71
2022/10/11 10:15:50;;;;;;;7.10;1.20;;;23.10;92.50;;;;;;5106259;27;20444;-70
2022/10/11 10:18:31;;;;;;;7.00;1.30;;;22.80;92.90;;;;;;5110767;27;20948;-70
2022/10/11 10:20:58;;;;;;;9.32;1.55;;;22.10;92.90;;;;;;5119858;27;20413;-70
2022/10/11 10:23:36;;;;;;;8.00;1.43;;;21.50;93.70;;;;;;5110359;27;21510;-70
2022/10/11 10:26:14;;;;;;;11.32;1.90;;;21.80;94.70;;;;;;5111139;27;21228;-71
2022/10/11 10:29:14;;;;;;;8.85;1.27;;;22.60;94.80;;;;;;5104585;28;20511;-71
2022/10/11 10:31:46;;;;;;;9.82;1.90;;;22.30;92.60;;;;;;5087918;27;20420;-71
2022/10/11 10:34:15;;;;;;;6.15;0.80;;;21.40;92.30;;;;;;5111411;27;20510;-71
2022/10/11 10:36:45;;;;;;;10.20;1.52;;;20.50;93.00;;;;;;5111413;27;20408;-71
2022/10/11 10:39:36;;;;;;;9.13;1.63;;;19.70;92.90;;;;;;5109849;27;20830;-74
2022/10/11 10:42:09;;;;;;;7.07;1.42;;;19.10;93.80;;;;;;5110565;27;20408;-71
2022/10/11 10:44:34;;;;;;;6.53;1.10;;;18.50;93.80;;;;;;5111392;27;20462;-71
2022/10/11 10:47:22;;;;;;;5.57;0.98;;;18.10;94.40;;;;;;5107041;28;20396;-71
2022/10/11 10:49:59;;;;;;;8.95;1.50;;;17.80;95.20;;;;;;5104803;27;20416;-70
2022/10/11 10:52:42;;;;;;;7.20;1.30;;;17.60;95.80;;;;;;5106667;28;20430;-71
2022/10/11 10:55:22;;;;;;;7.80;1.30;;;18.00;97.70;;;;;;5102784;27;20525;-71
2022/10/11 10:58:05;;;;;;;9.00;1.17;;;19.60;97.60;;;;;;5106391;28;20485;-71
2022/10/11 11:00:45;;;;;;;8.30;1.13;;;21.20;95.00;;;;;;5107436;28;20412;-73
2022/10/11 11:03:49;;;;;;;7.87;1.43;;;22.30;94.20;;;;;;5104719;28;20416;-72
2022/10/11 11:06:49;;;;;;;6.43;1.48;;;23.00;91.70;;;;;;5089895;28;20404;-73
2022/10/11 11:09:42;;;;;;;8.38;1.25;;;22.00;89.90;;;;;;5100968;28;20826;-73
2022/10/11 11:12:23;;;;;;;7.00;1.27;;;20.80;91.10;;;;;;5102690;27;20423;-72
2022/10/11 11:15:26;;;;;;;9.88;1.50;;;19.80;91.60;;;;;;5111171;28;20440;-70
2022/10/11 11:18:01;;;;;;;7.55;1.13;;;19.00;92.40;;;;;;5115841;27;20452;-69
2022/10/11 11:20:30;;;;;;;6.95;1.15;;;18.30;93.30;;;;;;5114509;28;20408;-72
2022/10/11 11:23:20;;;;;;;7.82;1.05;;;17.70;93.30;;;;;;5119351;28;20401;-69
2022/10/11 11:26:03;;;;;;;8.60;1.33;;;17.30;94.50;;;;;;5111487;28;20452;-73
2022/10/11 12:39:55;;;;;;;6.03;1.30;;;16.00;98.40;;;;;;5076677;28;20401;-71
2022/10/11 12:42:33;;;;;;;9.82;1.50;;;16.10;98.90;;;;;;5056259;28;20465;-68
2022/10/11 12:45:11;;;;;;;10.15;1.45;;;16.20;99.20;;;;;;5061778;28;20922;-69
2022/10/11 12:47:43;;;;;;;13.10;4.93;;;17.10;99.90;;;;;;5059361;28;20887;-69
2022/10/11 12:50:34;;;;;;;5.35;1.40;;;18.70;99.10;;;;;;5062734;28;20425;-69
2022/10/11 12:53:37;;;;;;;5.18;1.30;;;20.30;97.30;;;;;;5051988;28;20491;-69
2022/10/11 12:56:16;;;;;;;7.38;1.13;;;21.90;94.70;;;;;;5057978;28;20435;-69
2022/10/11 12:58:46;;;;;;;7.53;1.40;;;22.80;93.50;;;;;;5051183;28;20497;-69
2022/10/11 13:01:23;;;;;;;6.40;1.00;;;23.40;92.40;;;;;;5064221;28;20791;-69
2022/10/11 13:03:59;;;;;;;6.63;1.30;;;22.90;91.60;;;;;;5062523;28;20482;-69
2022/10/11 13:06:29;;;;;;;7.22;1.60;;;22.00;91.50;;;;;;5063808;28;20397;-68
2022/10/11 13:09:17;;;;;;;6.50;1.30;;;21.20;92.30;;;;;;5060034;28;20802;-68
2022/10/11 13:11:59;;;;;;;6.90;0.70;;;20.40;92.50;;;;;;5054977;28;20961;-69
2022/10/11 13:14:26;;;;;;;6.60;1.20;;;19.70;92.30;;;;;;5063640;28;20504;-68
2022/10/11 13:17:15;;;;;;;5.72;1.10;;;19.00;93.20;;;;;;5063634;28;20412;-69
2022/10/11 13:19:42;;;;;;;8.43;1.80;;;18.50;93.50;;;;;;5062534;28;20419;-67
2022/10/11 13:22:20;;;;;;;6.25;0.95;;;18.20;94.40;;;;;;5062836;28;20448;-72
2022/10/11 13:24:46;;;;;;;7.40;1.13;;;18.00;94.60;;;;;;5063701;28;20419;-73
2022/10/11 13:27:21;;;;;;;7.20;0.90;;;17.80;94.60;;;;;;5063605;28;20779;-73
2022/10/11 13:29:49;;;;;;;5.82;0.70;;;17.50;95.30;;;;;;5051104;28;20434;-71
2022/10/11 13:32:19;;;;;;;6.28;0.90;;;17.30;95.60;;;;;;5041078;28;20414;-69
2022/10/11 13:34:48;;;;;;;9.77;1.48;;;17.20;96.00;;;;;;5035953;28;20430;-67
2022/10/11 13:37:22;;;;;;;4.13;0.90;;;17.10;96.10;;;;;;5040225;28;20422;-70
2022/10/11 13:39:51;;;;;;;6.70;0.95;;;16.90;95.90;;;;;;5053676;28;20425;-70
2022/10/11 13:42:18;;;;;;;6.28;1.00;;;16.80;96.20;;;;;;5039627;28;20433;-70
2022/10/11 13:44:45;;;;;;;10.17;1.50;;;16.80;96.30;;;;;;5044815;28;20475;-71
2022/10/11 13:47:18;;;;;;;5.37;0.87;;;16.70;96.80;;;;;;5045655;28;20994;-70
2022/10/11 13:49:46;;;;;;;7.25;1.15;;;16.60;96.80;;;;;;5049265;28;20412;-70
2022/10/11 13:52:18;;;;;;;6.37;1.00;;;16.60;96.70;;;;;;5048356;28;20441;-70
2022/10/11 13:55:03;;;;;;;8.77;1.20;;;16.50;97.00;;;;;;5047006;28;20431;-70
2022/10/11 13:57:45;;;;;;;8.52;0.88;;;16.50;97.40;;;;;;5047121;28;20960;-71
2022/10/11 14:00:14;;;;;;;5.53;1.20;;;16.50;97.30;;;;;;5049010;28;20436;-71
2022/10/11 14:03:04;;;;;;;7.80;1.00;;;16.50;97.50;;;;;;5047969;28;20461;-71
2022/10/11 14:05:34;;;;;;;6.97;0.87;;;16.50;97.50;;;;;;5046504;28;20435;-71
2022/10/11 14:08:18;;;;;;;4.23;0.60;;;16.60;97.90;;;;;;5049634;28;20498;-71
2022/10/11 14:10:46;;;;;;;6.90;1.00;;;16.70;97.70;;;;;;5031369;28;20437;-70
2022/10/11 14:13:32;;;;;;;6.40;1.13;;;16.70;97.70;;;;;;5049823;28;20429;-71
2022/10/11 14:16:00;;;;;;;7.03;1.27;;;16.70;97.20;;;;;;5037146;28;20402;-71
2022/10/11 14:18:58;;;;;;;7.72;0.90;;;16.80;97.00;;;;;;5048229;28;20429;-72
2022/10/11 14:21:27;;;;;;;9.48;1.05;;;16.70;96.80;;;;;;5034061;28;21195;-72